Time;durP1;ratioP1;P1;durP2;ratioP2;P2;SDS_P1;SDS_P2;PMS_P1;PMS_P2;Temp;Humidity;BMP_temperature;BMP_pressure;BME280_temperature;BME280_humidity;BME280_pressure;Samples;Min_cycle;Max_cycle;Signal;HPM_P1;HPM_P2
2023/08/20 00:04:49;;;;;;;7.13;4.28;;;;;;;24.83;50.63;98114.66;10368489;28;20089;-66
2023/08/20 00:10:10;;;;;;;5.75;3.83;;;;;;;24.73;50.42;98111.63;10387213;28;20069;-67
2023/08/20 00:15:32;;;;;;;5.83;3.77;;;;;;;24.67;50.87;98100.09;10373290;28;20045;-67
2023/08/20 00:20:53;;;;;;;5.35;4.13;;;;;;;24.62;51.05;98101.44;10373504;28;20475;-67
2023/08/20 00:26:14;;;;;;;10.45;4.50;;;;;;;24.58;51.08;98103.50;10373242;28;20452;-68
2023/08/20 00:31:35;;;;;;;4.65;3.63;;;;;;;24.56;51.75;98107.03;10359188;28;20154;-68
2023/08/20 00:36:56;;;;;;;5.07;4.13;;;;;;;24.55;51.73;98105.59;10372833;28;20116;-68
2023/08/20 00:42:17;;;;;;;4.63;3.92;;;;;;;24.52;51.40;98096.28;10372619;28;20120;-67
2023/08/20 00:47:38;;;;;;;6.00;3.90;;;;;;;24.51;51.87;98103.41;10372656;28;20173;-67
2023/08/20 00:53:00;;;;;;;4.37;3.97;;;;;;;24.47;51.89;98109.03;10359360;28;20089;-67
2023/08/20 00:58:20;;;;;;;5.30;3.80;;;;;;;24.38;52.37;98109.56;10372586;28;20081;-67
2023/08/20 01:03:41;;;;;;;4.47;3.47;;;;;;;24.20;52.88;98122.03;10373096;28;20407;-67
2023/08/20 01:09:15;;;;;;;4.93;3.63;;;;;;;24.07;53.28;98123.19;10358402;28;20070;-67
2023/08/20 01:14:36;;;;;;;4.13;3.67;;;;;;;24.01;53.61;98113.78;10358319;28;20118;-67
2023/08/20 01:19:56;;;;;;;5.57;4.15;;;;;;;23.88;53.89;98119.25;10373166;28;20070;-67
2023/08/20 01:25:42;;;;;;;4.90;3.72;;;;;;;23.70;54.67;98113.88;10371824;28;20046;-67
2023/08/20 01:31:02;;;;;;;5.05;4.13;;;;;;;23.55;54.78;98111.38;10375445;28;20484;-67
2023/08/20 01:36:23;;;;;;;5.63;4.00;;;;;;;23.42;55.24;98118.91;10365178;28;20125;-68
2023/08/20 01:41:44;;;;;;;6.95;4.20;;;;;;;23.36;55.82;98113.09;10379889;28;20081;-68
2023/08/20 01:47:05;;;;;;;5.82;4.28;;;;;;;23.31;56.13;98117.97;10378845;28;20103;-67
2023/08/20 01:52:26;;;;;;;5.47;4.80;;;;;;;23.17;56.11;98119.78;10379487;28;20097;-67
2023/08/20 01:57:47;;;;;;;5.38;4.50;;;;;;;23.03;56.92;98120.84;10378521;28;20042;-68
2023/08/20 02:03:07;;;;;;;5.63;3.97;;;;;;;22.96;57.20;98129.91;10377546;28;20515;-67
2023/08/20 02:08:28;;;;;;;6.45;4.47;;;;;;;22.91;57.57;98125.53;10378796;28;20125;-68
2023/08/20 02:13:49;;;;;;;7.05;4.53;;;;;;;22.85;57.93;98126.09;10378949;28;20125;-68
2023/08/20 02:19:10;;;;;;;5.22;4.50;;;;;;;22.88;58.32;98132.59;10377574;28;20042;-68
2023/08/20 02:24:30;;;;;;;5.28;4.30;;;;;;;22.81;58.06;98126.69;10378109;28;20042;-67
2023/08/20 02:29:51;;;;;;;6.65;5.57;;;;;;;22.83;58.42;98128.88;10376825;28;20200;-67
2023/08/20 02:35:14;;;;;;;5.53;4.50;;;;;;;22.87;58.93;98131.84;10390526;28;20123;-67
2023/08/20 02:40:44;;;;;;;7.53;4.97;;;;;;;23.02;58.96;98115.84;10376116;28;20606;-68
2023/08/20 02:46:05;;;;;;;5.95;4.88;;;;;;;23.11;59.04;98114.63;10376110;28;20085;-66
2023/08/20 02:51:27;;;;;;;8.35;5.30;;;;;;;23.13;58.73;98118.25;10376083;28;20121;-67
2023/08/20 02:56:48;;;;;;;5.25;4.32;;;;;;;23.06;58.97;98130.16;10362188;28;20104;-67
2023/08/20 03:02:09;;;;;;;6.40;4.78;;;;;;;23.04;59.42;98115.88;10375519;28;20121;-67
2023/08/20 03:07:29;;;;;;;5.97;4.53;;;;;;;22.99;59.74;98123.63;10376395;28;20045;-68
2023/08/20 03:12:50;;;;;;;4.97;4.47;;;;;;;22.98;59.84;98127.88;10376257;28;20069;-66
2023/08/20 03:18:11;;;;;;;5.22;4.40;;;;;;;23.02;59.99;98127.22;10375888;28;20117;-67
2023/08/20 03:23:31;;;;;;;7.05;4.55;;;;;;;23.05;59.94;98123.03;10375943;28;20117;-68
2023/08/20 03:28:52;;;;;;;6.68;4.38;;;;;;;23.09;60.22;98137.38;10388359;28;20120;-68
2023/08/20 03:34:14;;;;;;;4.88;4.38;;;;;;;23.13;60.02;98140.31;10374541;28;20129;-68
2023/08/20 03:39:34;;;;;;;4.88;4.32;;;;;;;23.17;60.06;98137.56;10374146;28;20472;-66
2023/08/20 03:44:55;;;;;;;5.07;4.38;;;;;;;23.19;59.91;98129.06;10374128;28;20076;-67
2023/08/20 03:50:16;;;;;;;6.10;4.53;;;;;;;23.17;60.43;98125.47;10374105;28;20097;-68
2023/08/20 03:55:37;;;;;;;5.18;4.32;;;;;;;23.20;60.31;98127.69;10359299;28;20069;-67
2023/08/20 04:00:59;;;;;;;6.38;4.72;;;;;;;23.34;60.27;98127.28;10373469;28;20237;-68
2023/08/20 04:06:19;;;;;;;5.45;4.25;;;;;;;23.47;60.25;98131.88;10374327;28;20510;-68
2023/08/20 04:11:40;;;;;;;8.48;4.57;;;;;;;23.61;59.96;98146.44;10374357;28;20190;-68
2023/08/20 04:17:02;;;;;;;6.47;4.68;;;;;;;23.69;59.73;98143.06;10374243;28;20070;-67
2023/08/20 04:22:25;;;;;;;5.85;4.70;;;;;;;23.78;59.27;98138.25;10373094;28;20066;-67
2023/08/20 04:27:46;;;;;;;5.80;4.43;;;;;;;23.86;59.11;98153.41;10359354;28;20510;-67
2023/08/20 04:33:06;;;;;;;5.88;4.50;;;;;;;23.96;58.79;98165.03;10372726;28;20113;-67
2023/08/20 04:38:28;;;;;;;4.93;4.43;;;;;;;24.00;58.45;98164.38;10372941;28;20066;-68
2023/08/20 04:43:51;;;;;;;;;;;;;;;24.01;58.27;98162.25;10373218;28;20073;-67
2023/08/20 04:49:14;;;;;;;4.93;4.50;;;;;;;23.93;58.63;98157.84;10373201;28;20374;-68
2023/08/20 04:54:35;;;;;;;6.40;4.45;;;;;;;24.00;58.29;98158.69;10373246;28;20065;-68
2023/08/20 04:59:56;;;;;;;9.60;5.07;;;;;;;24.07;58.81;98165.97;10372700;28;20050;-67
2023/08/20 05:05:29;;;;;;;7.60;4.82;;;;;;;24.16;58.34;98176.13;10377161;28;20053;-67
2023/08/20 05:10:51;;;;;;;6.25;4.97;;;;;;;24.28;57.94;98176.38;10380140;28;20073;-67
2023/08/20 05:16:12;;;;;;;8.45;6.03;;;;;;;24.37;57.64;98168.75;10381059;28;20046;-67
2023/08/20 05:21:33;;;;;;;6.38;5.22;;;;;;;24.42;57.67;98190.25;10379844;28;20046;-67
2023/08/20 05:27:14;;;;;;;8.07;5.13;;;;;;;24.45;57.56;98180.31;10365996;28;20526;-66
2023/08/20 05:32:37;;;;;;;6.53;4.88;;;;;;;24.51;57.37;98197.56;10379598;28;20066;-67
2023/08/20 05:37:58;;;;;;;5.63;4.65;;;;;;;24.46;57.32;98195.31;10379123;28;20124;-67
2023/08/20 05:43:20;;;;;;;5.95;4.63;;;;;;;24.41;57.70;98202.31;10380041;28;20065;-67
2023/08/20 05:48:41;;;;;;;7.90;5.80;;;;;;;24.36;57.48;98215.78;10365404;28;20050;-67
2023/08/20 05:54:04;;;;;;;9.30;6.10;;;;;;;24.30;58.45;98220.59;10392057;28;20046;-67
2023/08/20 05:59:25;;;;;;;9.00;6.07;;;;;;;24.33;58.18;98225.00;10379345;28;20046;-67
2023/08/20 06:04:46;;;;;;;8.98;6.75;;;;;;;24.28;57.72;98233.44;10379145;28;20050;-67
2023/08/20 06:10:07;;;;;;;7.15;5.88;;;;;;;24.32;58.70;98234.94;10378905;28;20042;-67
2023/08/20 06:15:28;;;;;;;7.70;5.75;;;;;;;24.48;58.21;98229.56;10376752;28;20050;-68
2023/08/20 06:20:49;;;;;;;9.45;5.85;;;;;;;24.36;57.85;98237.88;10377272;28;20076;-66
2023/08/20 06:26:10;;;;;;;12.20;6.15;;;;;;;24.32;58.80;98232.84;10377211;28;20500;-67
2023/08/20 06:31:31;;;;;;;8.75;6.97;;;;;;;24.17;58.55;98246.03;10363323;28;20033;-67
2023/08/20 06:36:52;;;;;;;9.73;7.15;;;;;;;24.09;59.27;98243.00;10377809;28;20120;-67
2023/08/20 06:42:13;;;;;;;8.98;6.25;;;;;;;24.24;59.61;98249.75;10377485;28;20045;-68
2023/08/20 06:47:35;;;;;;;9.95;5.65;;;;;;;24.50;59.33;98250.31;10376368;28;20082;-67
2023/08/20 06:52:56;;;;;;;8.57;5.68;;;;;;;24.79;58.97;98256.56;10377134;28;20373;-67
2023/08/20 06:58:17;;;;;;;7.65;5.32;;;;;;;25.10;58.14;98269.34;10389997;28;20395;-67
2023/08/20 07:03:42;;;;;;;9.98;5.47;;;;;;;25.40;57.41;98272.03;10376410;28;20080;-68
2023/08/20 07:09:04;;;;;;;7.65;5.70;;;;;;;25.63;57.12;98284.53;10375518;28;20041;-67
2023/08/20 07:14:24;;;;;;;9.65;5.45;;;;;;;26.01;56.90;98272.28;10376382;28;20447;-70
2023/08/20 07:19:45;;;;;;;6.25;4.90;;;;;;;26.29;55.86;98284.13;10388671;28;20050;-67
2023/08/20 07:25:07;;;;;;;7.28;5.55;;;;;;;26.56;54.94;98293.09;10375739;28;20046;-67
2023/08/20 07:30:29;;;;;;;7.90;6.00;;;;;;;26.78;54.04;98287.66;10375724;28;20490;-68
2023/08/20 07:35:50;;;;;;;8.43;5.78;;;;;;;27.21;52.74;98288.84;10375429;28;20045;-67
2023/08/20 07:41:12;;;;;;;8.73;6.13;;;;;;;27.72;51.34;98285.78;10375554;28;20050;-68
2023/08/20 07:46:33;;;;;;;9.00;6.03;;;;;;;28.44;49.88;98290.56;10375111;28;20095;-67
2023/08/20 07:51:56;;;;;;;8.68;6.43;;;;;;;29.04;48.31;98295.13;10375090;28;20048;-67
2023/08/20 07:57:17;;;;;;;11.48;6.38;;;;;;;30.09;47.07;98288.78;10374682;28;20567;-67
2023/08/20 08:02:38;;;;;;;9.35;6.45;;;;;;;31.12;45.73;98286.28;10374311;28;20054;-70
2023/08/20 08:07:59;;;;;;;10.40;6.23;;;;;;;32.01;43.80;98300.06;10373518;28;20121;-70
2023/08/20 08:13:22;;;;;;;9.85;6.00;;;;;;;32.52;41.60;98301.75;10373498;28;20046;-70
2023/08/20 08:18:43;;;;;;;8.38;5.03;;;;;;;36.52;38.80;98299.19;10386395;28;20111;-70
2023/08/20 08:24:05;;;;;;;7.13;4.88;;;;;;;37.58;33.32;98304.78;10374067;28;20045;-70
2023/08/20 08:29:27;;;;;;;6.80;5.72;;;;;;;37.51;31.09;98306.47;10373222;28;20050;-71
2023/08/20 08:34:50;;;;;;;7.55;4.68;;;;;;;38.57;29.55;98326.94;10373928;28;20049;-70
2023/08/20 08:40:12;;;;;;;8.02;4.45;;;;;;;37.31;29.96;98331.09;10378100;28;20121;-70
2023/08/20 08:45:33;;;;;;;6.07;4.78;;;;;;;36.05;31.47;98317.84;10394599;28;20042;-70
2023/08/20 08:50:56;;;;;;;6.90;5.43;;;;;;;37.56;31.58;98336.16;10381887;28;20053;-70
2023/08/20 08:56:18;;;;;;;5.55;4.97;;;;;;;40.47;26.58;98331.91;10381653;28;20037;-70
2023/08/20 09:01:40;;;;;;;6.50;4.80;;;;;;;41.46;23.40;98337.63;10380911;28;20480;-71
2023/08/20 09:07:02;;;;;;;7.15;4.80;;;;;;;42.36;25.40;98344.94;10380202;28;20050;-70
2023/08/20 09:12:25;;;;;;;6.70;4.47;;;;;;;42.57;22.09;98351.22;10380945;28;20529;-72
2023/08/20 09:17:46;;;;;;;6.05;4.63;;;;;;;41.27;23.16;98361.19;10380714;28;20042;-72
2023/08/20 09:23:13;;;;;;;5.57;4.85;;;;;;;40.10;24.84;98361.25;10379418;28;20066;-72
2023/08/20 09:28:44;;;;;;;6.45;5.32;;;;;;;39.73;25.45;98362.72;10380427;28;20057;-71
2023/08/20 09:34:05;;;;;;;6.95;4.95;;;;;;;42.94;22.71;98366.88;10379989;28;20117;-73
2023/08/20 09:39:27;;;;;;;7.78;4.22;;;;;;;47.47;18.35;98369.34;10392287;28;20046;-73
2023/08/20 09:44:48;;;;;;;6.28;3.60;;;;;;;49.10;15.84;98365.84;10379878;28;20042;-72
2023/08/20 09:50:12;;;;;;;6.30;2.80;;;;;;;50.58;13.78;98356.53;10378055;28;20062;-73
2023/08/20 09:55:34;;;;;;;5.50;2.90;;;;;;;51.04;14.07;98356.97;10379342;28;20052;-73
2023/08/20 10:00:55;;;;;;;6.10;2.90;;;;;;;51.25;13.23;98352.91;10391368;28;20060;-73
2023/08/20 10:06:17;;;;;;;3.38;2.72;;;;;;;47.70;15.31;98357.31;10391521;28;20050;-71
2023/08/20 10:11:41;;;;;;;3.75;2.45;;;;;;;49.99;14.25;98349.63;10377696;28;20049;-71
2023/08/20 10:17:09;;;;;;;5.38;1.88;;;;;;;52.46;12.12;98360.47;10377330;28;20058;-72
2023/08/20 10:22:37;;;;;;;9.53;2.13;;;;;;;53.52;10.72;98350.94;10378386;28;20064;-72
2023/08/20 10:28:24;;;;;;;3.38;2.40;;;;;;;53.40;10.92;98343.22;10378084;28;20061;-72
2023/08/20 10:33:53;;;;;;;2.40;2.17;;;;;;;53.71;11.06;98335.56;10377730;28;20046;-73
2023/08/20 10:39:25;;;;;;;2.83;2.50;;;;;;;53.13;11.50;98339.84;10377518;28;20057;-72
2023/08/20 10:45:05;;;;;;;4.75;2.40;;;;;;;52.60;11.94;98338.97;10377836;28;20058;-72
2023/08/20 10:50:26;;;;;;;3.50;2.95;;;;;;;51.61;12.59;98339.28;10375972;28;20116;-72
2023/08/20 10:55:48;;;;;;;6.30;2.80;;;;;;;52.26;12.04;98339.94;10375873;28;20042;-72
2023/08/20 11:01:20;;;;;;;4.72;2.90;;;;;;;51.33;12.57;98330.66;10375345;28;20074;-72
2023/08/20 11:06:41;;;;;;;5.57;3.40;;;;;;;51.11;12.77;98313.28;10376206;28;20050;-72
2023/08/20 11:12:02;;;;;;;6.22;3.42;;;;;;;51.37;12.35;98318.41;10376574;28;20068;-71
2023/08/20 11:17:23;;;;;;;4.20;3.63;;;;;;;50.58;11.96;98320.19;10376200;28;20411;-70
2023/08/20 11:22:44;;;;;;;4.45;3.45;;;;;;;48.95;13.98;98313.66;10376084;28;20057;-72
2023/08/20 11:28:05;;;;;;;7.57;4.10;;;;;;;48.61;13.70;98311.16;10388224;28;20128;-73
2023/08/20 11:33:27;;;;;;;6.18;3.80;;;;;;;48.94;13.31;98315.22;10375733;28;20475;-72
2023/08/20 11:38:52;;;;;;;5.95;4.40;;;;;;;48.80;13.18;98298.56;10374808;28;20049;-71
2023/08/20 11:44:21;;;;;;;7.80;4.68;;;;;;;47.38;14.52;98292.38;10374320;28;20046;-72
2023/08/20 11:49:42;;;;;;;6.00;4.43;;;;;;;41.83;19.81;98291.91;10374292;28;20392;-71
2023/08/20 11:55:03;;;;;;;7.38;4.45;;;;;;;38.93;23.75;98289.91;10387655;28;20054;-72
2023/08/20 12:00:28;;;;;;;8.70;4.50;;;;;;;37.37;26.06;98298.91;10374849;28;20065;-71
2023/08/20 12:05:49;;;;;;;7.07;4.30;;;;;;;36.48;27.80;98290.59;10374474;28;20049;-71
2023/08/20 12:11:10;;;;;;;5.00;4.47;;;;;;;36.07;28.56;98290.94;10374490;28;20467;-72
2023/08/20 12:16:31;;;;;;;7.25;4.72;;;;;;;36.36;28.64;98290.91;10386443;28;20065;-71
2023/08/20 12:21:51;;;;;;;6.47;4.68;;;;;;;36.23;29.08;98278.19;10374139;28;20100;-71
2023/08/20 12:27:13;;;;;;;6.00;4.80;;;;;;;36.08;29.01;98278.53;10374081;28;20057;-72
2023/08/20 12:32:34;;;;;;;5.00;4.10;;;;;;;36.01;28.62;98271.50;10373104;28;20061;-71
2023/08/20 12:37:55;;;;;;;7.40;4.53;;;;;;;36.07;28.98;98262.59;10374043;28;20050;-71
2023/08/20 12:43:16;;;;;;;8.48;4.20;;;;;;;35.91;29.49;98259.44;10386462;28;20050;-70
2023/08/20 12:48:37;;;;;;;8.13;4.90;;;;;;;35.34;29.49;98252.78;10373312;28;20406;-71
2023/08/20 12:53:58;;;;;;;6.18;3.83;;;;;;;34.86;30.14;98240.09;10386536;28;20096;-71
2023/08/20 12:59:19;;;;;;;9.77;4.38;;;;;;;34.51;31.09;98226.31;10373546;28;20667;-70
2023/08/20 13:04:40;;;;;;;7.80;3.95;;;;;;;34.56;30.98;98218.28;10372144;28;20136;-70
2023/08/20 13:10:04;;;;;;;4.47;3.60;;;;;;;34.69;30.67;98219.44;10372123;28;20089;-71
2023/08/20 13:15:25;;;;;;;5.50;3.30;;;;;;;35.28;29.71;98215.91;10373052;28;20046;-71
2023/08/20 13:20:46;;;;;;;;;;;;;;;35.34;29.30;98223.78;10373362;28;20066;-71
2023/08/20 13:26:07;;;;;;;5.70;3.72;;;;;;;35.32;29.48;98229.59;10376787;28;19949;-70
2023/08/20 13:31:29;;;;;;;5.43;3.55;;;;;;;35.48;29.33;98225.63;10379121;28;20044;-71
2023/08/20 13:36:50;;;;;;;7.65;4.15;;;;;;;35.60;29.68;98227.50;10379975;28;20432;-71
2023/08/20 13:42:11;;;;;;;;;;;;;;;35.54;29.58;98229.09;10380348;28;20527;-71
2023/08/20 13:47:31;;;;;;;5.18;2.92;;;;;;;35.44;29.26;98237.34;10379544;28;19956;-71
2023/08/20 13:52:52;;;;;;;6.55;3.50;;;;;;;36.05;28.58;98224.19;10379404;28;20088;-70
2023/08/20 13:58:13;;;;;;;;;;;;;;;35.90;28.46;98220.94;10380061;28;20070;-71
2023/08/20 14:03:35;;;;;;;7.45;3.42;;;;;;;35.58;28.98;98221.75;10378992;28;20272;-70
2023/08/20 14:08:55;;;;;;;4.88;3.35;;;;;;;34.90;29.51;98208.84;10391668;28;20070;-71
2023/08/20 14:14:16;;;;;;;;;;;;;;;34.62;30.23;98209.44;10378997;28;20069;-69
2023/08/20 14:19:37;;;;;;;10.88;4.47;;;;;;;34.53;31.04;98202.38;10378318;28;20386;-69
2023/08/20 14:24:58;;;;;;;;;;;;;;;34.32;31.73;98208.56;10378380;28;20373;-69
2023/08/20 14:30:19;;;;;;;7.10;4.10;;;;;;;34.11;32.28;98201.75;10377971;28;19921;-69
2023/08/20 14:35:40;;;;;;;7.68;4.03;;;;;;;34.08;32.45;98200.38;10377102;28;20112;-71
2023/08/20 14:41:02;;;;;;;8.68;5.47;;;;;;;34.12;32.60;98188.72;10377765;28;20053;-71
2023/08/20 14:46:24;;;;;;;6.13;3.88;;;;;;;34.55;32.61;98184.94;10376670;28;20048;-71
2023/08/20 14:51:45;;;;;;;;;;;;;;;34.83;31.95;98181.41;10377433;28;20076;-71
2023/08/20 14:57:05;;;;;;;6.40;3.97;;;;;;;34.59;31.92;98181.97;10376903;28;19921;-72
2023/08/20 15:02:26;;;;;;;4.88;3.90;;;;;;;34.07;32.54;98187.38;10376834;28;20089;-71
2023/08/20 15:07:47;;;;;;;6.55;3.80;;;;;;;33.78;33.55;98190.78;10376390;28;20104;-71
2023/08/20 15:13:08;;;;;;;10.18;4.03;;;;;;;33.96;33.12;98183.22;10375315;28;20400;-70
2023/08/20 15:18:30;;;;;;;5.10;3.80;;;;;;;33.70;33.71;98179.34;10376070;28;20411;-71
2023/08/20 15:23:51;;;;;;;6.68;3.63;;;;;;;33.63;34.04;98180.19;10376181;28;20508;-71
2023/08/20 15:29:13;;;;;;;5.95;3.92;;;;;;;33.49;34.14;98181.88;10374851;28;20038;-71
2023/08/20 15:34:33;;;;;;;;;;;;;;;33.44;34.25;98182.69;10376210;28;20045;-68
2023/08/20 15:39:54;;;;;;;8.38;3.80;;;;;;;33.25;34.03;98177.19;10375360;28;19929;-69
2023/08/20 15:45:17;;;;;;;4.65;3.25;;;;;;;33.09;34.29;98168.75;10375233;28;20053;-70
2023/08/20 15:50:38;;;;;;;;;;;;;;;32.99;34.69;98177.59;10374321;28;20068;-70
2023/08/20 15:55:58;;;;;;;6.53;3.60;;;;;;;32.66;34.33;98172.28;10374928;28;20330;-71
2023/08/20 16:01:20;;;;;;;6.05;3.45;;;;;;;32.26;34.52;98169.91;10374697;28;20499;-71
2023/08/20 16:06:41;;;;;;;4.55;3.50;;;;;;;31.92;35.29;98176.78;10374412;28;20499;-71
2023/08/20 16:12:02;;;;;;;7.13;3.70;;;;;;;31.80;35.45;98160.31;10374425;28;20045;-70
2023/08/20 16:17:24;;;;;;;6.63;3.42;;;;;;;31.68;36.22;98163.31;10374068;28;20407;-71
2023/08/20 16:22:46;;;;;;;10.52;3.45;;;;;;;31.57;35.95;98160.50;10373191;28;20050;-70
2023/08/20 16:28:10;;;;;;;6.50;3.50;;;;;;;31.43;36.75;98177.94;10374095;28;20406;-70
2023/08/20 16:33:31;;;;;;;6.95;3.53;;;;;;;31.26;36.71;98168.69;10373451;28;20451;-70
2023/08/20 16:38:53;;;;;;;10.18;3.90;;;;;;;31.16;37.17;98168.75;10373736;28;20108;-68
2023/08/20 16:44:14;;;;;;;6.57;4.22;;;;;;;30.96;37.67;98172.50;10373537;28;20042;-70
2023/08/20 16:49:35;;;;;;;10.53;3.67;;;;;;;30.81;38.61;98164.72;10372633;28;20038;-70
2023/08/20 16:54:56;;;;;;;7.23;4.07;;;;;;;30.66;38.73;98170.53;10373436;28;20070;-70
2023/08/20 17:00:18;;;;;;;6.40;3.83;;;;;;;30.52;38.89;98175.66;10376729;28;20096;-71
2023/08/20 17:05:40;;;;;;;5.95;3.30;;;;;;;30.39;38.89;98178.56;10381113;28;20050;-71
2023/08/20 17:11:08;;;;;;;5.82;3.38;;;;;;;30.24;39.46;98182.97;10380129;28;20070;-69
2023/08/20 17:16:29;;;;;;;5.88;3.50;;;;;;;30.14;39.57;98183.72;10379988;28;20427;-70
2023/08/20 17:21:51;;;;;;;7.50;3.00;;;;;;;30.00;39.60;98180.84;10380573;28;20054;-70
2023/08/20 17:27:12;;;;;;;;;;;;;;;29.97;40.80;98178.72;10381199;28;20066;-70
2023/08/20 17:32:33;;;;;;;5.95;3.38;;;;;;;29.89;40.52;98179.44;10380286;28;20004;-69
2023/08/20 17:37:54;;;;;;;5.57;3.33;;;;;;;29.83;40.86;98185.22;10379346;28;20504;-70
2023/08/20 17:43:16;;;;;;;8.07;3.10;;;;;;;29.73;41.15;98188.84;10379972;28;20042;-70
2023/08/20 17:48:38;;;;;;;;;;;;;;;29.68;42.09;98183.81;10380223;28;20057;-69
2023/08/20 17:53:59;;;;;;;4.70;3.28;;;;;;;29.55;41.75;98186.00;10379613;28;19921;-70
2023/08/20 17:59:20;;;;;;;7.23;3.67;;;;;;;29.48;42.08;98190.28;10364596;28;20046;-70
2023/08/20 18:04:41;;;;;;;5.00;3.30;;;;;;;29.34;42.55;98188.84;10377790;28;20053;-70
2023/08/20 18:10:02;;;;;;;6.07;3.20;;;;;;;29.25;42.96;98198.91;10391223;28;20054;-70
2023/08/20 18:15:23;;;;;;;4.45;3.17;;;;;;;29.16;43.55;98197.47;10377510;28;20049;-70
2023/08/20 18:20:45;;;;;;;5.30;4.03;;;;;;;29.04;43.66;98194.56;10391125;28;20137;-70
2023/08/20 18:26:07;;;;;;;7.28;3.85;;;;;;;28.94;44.12;98211.78;10377149;28;20066;-70
2023/08/20 18:31:28;;;;;;;5.75;4.22;;;;;;;28.76;44.47;98215.34;10377000;28;20447;-68
2023/08/20 18:36:49;;;;;;;6.55;4.78;;;;;;;28.69;45.19;98216.75;10377120;28;20073;-69
2023/08/20 18:42:10;;;;;;;7.75;5.88;;;;;;;28.63;45.31;98240.41;10377295;28;20042;-70
2023/08/20 18:47:31;;;;;;;8.52;4.50;;;;;;;28.64;45.71;98244.00;10375543;28;20052;-69
2023/08/20 18:52:52;;;;;;;7.68;4.28;;;;;;;28.60;45.83;98247.59;10390012;28;20044;-69
2023/08/20 18:58:13;;;;;;;10.88;4.10;;;;;;;28.55;46.26;98240.38;10362500;28;20412;-70
2023/08/20 19:03:34;;;;;;;5.90;4.22;;;;;;;28.46;46.38;98253.25;10376716;28;20056;-68
2023/08/20 19:08:55;;;;;;;8.50;4.68;;;;;;;28.41;46.97;98254.69;10376785;28;20527;-69
2023/08/20 19:14:16;;;;;;;5.68;4.32;;;;;;;28.35;47.06;98254.63;10376296;28;20396;-68
2023/08/20 19:19:38;;;;;;;7.47;4.50;;;;;;;28.32;47.30;98250.31;10388767;28;20057;-70
2023/08/20 19:25:00;;;;;;;9.38;4.72;;;;;;;28.29;47.27;98263.22;10375827;28;20052;-70
2023/08/20 19:30:21;;;;;;;9.43;5.27;;;;;;;28.32;47.37;98268.25;10375673;28;20060;-68
2023/08/20 19:35:44;;;;;;;7.20;5.20;;;;;;;28.34;47.06;98256.78;10375492;28;20411;-68
2023/08/20 19:41:06;;;;;;;11.00;4.80;;;;;;;28.32;47.20;98256.78;10375317;28;20285;-67
2023/08/20 19:46:26;;;;;;;8.75;5.00;;;;;;;28.28;47.46;98256.00;10375361;28;20077;-67
2023/08/20 19:51:47;;;;;;;9.05;4.75;;;;;;;28.24;47.25;98263.16;10373945;28;20038;-68
2023/08/20 19:57:08;;;;;;;7.95;4.90;;;;;;;28.21;47.25;98263.88;10360257;28;20452;-67
2023/08/20 20:02:29;;;;;;;7.97;4.90;;;;;;;28.17;47.46;98270.28;10359875;28;20058;-68
2023/08/20 20:07:51;;;;;;;;;;;;;;;27.91;48.43;98262.25;10375040;28;20049;-68
2023/08/20 20:13:12;;;;;;;9.63;5.32;;;;;;;27.79;48.00;98265.03;10387192;28;19928;-68
2023/08/20 20:18:34;;;;;;;6.55;5.28;;;;;;;27.81;48.44;98267.22;10374121;28;20061;-68
2023/08/20 20:23:55;;;;;;;9.95;5.40;;;;;;;27.79;48.67;98270.03;10374364;28;20492;-67
2023/08/20 20:29:15;;;;;;;8.80;5.47;;;;;;;27.80;48.73;98274.38;10372938;28;20045;-67
2023/08/20 20:34:36;;;;;;;7.53;5.78;;;;;;;27.75;48.76;98270.03;10377887;28;20046;-68
2023/08/20 20:39:57;;;;;;;9.73;5.95;;;;;;;27.66;49.09;98272.81;10387398;28;20046;-68
2023/08/20 20:45:18;;;;;;;11.73;6.22;;;;;;;27.69;48.79;98269.97;10387302;28;20045;-68
2023/08/20 20:50:39;;;;;;;7.28;5.25;;;;;;;27.67;48.84;98264.94;10399685;28;20405;-68
2023/08/20 20:56:00;;;;;;;7.80;6.18;;;;;;;27.68;49.10;98269.25;10386073;28;20053;-67
2023/08/20 21:01:21;;;;;;;7.88;5.80;;;;;;;27.66;49.24;98278.56;10386855;28;20076;-67
2023/08/20 21:06:42;;;;;;;9.15;5.57;;;;;;;27.68;48.85;98272.09;10385901;28;20113;-68
2023/08/20 21:12:03;;;;;;;8.68;5.55;;;;;;;27.64;49.10;98264.19;10385658;28;20050;-68
2023/08/20 21:17:24;;;;;;;13.45;6.10;;;;;;;27.55;49.25;98268.41;10385585;28;20124;-67
2023/08/20 21:22:45;;;;;;;8.93;5.80;;;;;;;27.53;49.51;98264.81;10386669;28;20389;-67
2023/08/20 21:28:06;;;;;;;11.65;5.78;;;;;;;27.51;49.50;98267.66;10385340;28;20050;-67
2023/08/20 21:33:27;;;;;;;13.45;9.52;;;;;;;27.49;49.81;98282.69;10386749;28;20061;-67
2023/08/20 21:38:48;;;;;;;9.20;6.50;;;;;;;27.39;49.65;98283.31;10386484;28;20042;-67
2023/08/20 21:44:08;;;;;;;11.52;5.80;;;;;;;27.25;50.17;98283.19;10386268;28;20487;-67
2023/08/20 21:49:30;;;;;;;12.90;6.43;;;;;;;27.15;50.58;98280.22;10379682;28;20464;-67
2023/08/20 21:54:51;;;;;;;9.48;5.90;;;;;;;27.08;51.02;98288.00;10378328;28;20061;-66
2023/08/20 22:00:15;;;;;;;11.55;5.70;;;;;;;26.99;51.43;98283.59;10379322;28;20045;-67
2023/08/20 22:05:36;;;;;;;8.02;5.15;;;;;;;26.92;51.51;98282.06;10377653;28;20074;-67
2023/08/20 22:10:57;;;;;;;7.47;5.53;;;;;;;26.77;52.13;98281.19;10378767;28;20042;-67
2023/08/20 22:16:18;;;;;;;12.10;6.07;;;;;;;26.52;52.51;98293.75;10378620;28;20046;-67
2023/08/20 22:21:43;;;;;;;11.75;5.65;;;;;;;26.26;53.27;98274.09;10363861;28;20049;-67
2023/08/20 22:27:04;;;;;;;10.48;6.68;;;;;;;26.07;53.34;98278.09;10378215;28;20072;-68
2023/08/20 22:32:25;;;;;;;6.63;5.20;;;;;;;25.95;54.39;98284.34;10377896;28;20046;-68
2023/08/20 22:38:04;;;;;;;7.43;5.88;;;;;;;25.86;55.38;98289.22;10378230;28;20396;-67
2023/08/20 22:43:25;;;;;;;11.82;6.63;;;;;;;25.77;55.29;98281.94;10390124;28;20480;-68
2023/08/20 22:48:47;;;;;;;8.68;6.15;;;;;;;25.68;55.17;98283.22;10377230;28;20177;-67
2023/08/20 22:54:08;;;;;;;7.30;5.50;;;;;;;25.62;55.82;98280.97;10377183;28;20054;-67
2023/08/20 22:59:29;;;;;;;10.25;6.15;;;;;;;25.58;56.21;98271.59;10376094;28;20073;-66
2023/08/20 23:04:49;;;;;;;10.50;5.28;;;;;;;25.47;56.15;98276.41;10376270;28;20085;-67
2023/08/20 23:10:10;;;;;;;8.70;6.00;;;;;;;25.36;56.54;98284.09;10376359;28;20104;-67
2023/08/20 23:15:31;;;;;;;7.40;5.57;;;;;;;25.28;57.37;98271.78;10375507;28;20061;-66
2023/08/20 23:20:53;;;;;;;7.97;6.00;;;;;;;25.16;57.71;98272.28;10375162;28;20543;-67
2023/08/20 23:26:13;;;;;;;10.20;6.37;;;;;;;25.06;57.97;98280.69;10375990;28;20135;-68
2023/08/20 23:31:34;;;;;;;11.80;6.18;;;;;;;25.00;58.61;98277.69;10375904;28;20480;-67
2023/08/20 23:36:55;;;;;;;7.55;5.68;;;;;;;24.88;58.91;98277.44;10388335;28;20057;-66
2023/08/20 23:42:16;;;;;;;10.73;6.35;;;;;;;24.81;59.22;98268.78;10374551;28;20042;-68
2023/08/20 23:47:37;;;;;;;10.02;6.15;;;;;;;24.76;60.01;98277.94;10375395;28;20054;-67
2023/08/20 23:52:57;;;;;;;9.60;6.13;;;;;;;24.65;60.08;98265.59;10388306;28;20427;-67
2023/08/20 23:58:19;;;;;;;9.93;6.40;;;;;;;24.59;60.68;98276.16;10388397;28;20070;-67
